sensor_id;sensor_type;location;lat;lon;timestamp;temperature;humidity
39881;DHT22;25554;44.954;10.068;2022-09-09T00:02:18;19.20;99.90
39881;DHT22;25554;44.954;10.068;2022-09-09T00:07:53;19.20;99.90
39881;DHT22;25554;44.954;10.068;2022-09-09T00:15:59;19.30;99.90
39881;DHT22;25554;44.954;10.068;2022-09-09T00:18:47;19.30;99.90
39881;DHT22;25554;44.954;10.068;2022-09-09T00:21:18;19.30;99.90
39881;DHT22;25554;44.954;10.068;2022-09-09T00:23:51;19.20;99.90
39881;DHT22;25554;44.954;10.068;2022-09-09T00:31:43;19.00;99.90
39881;DHT22;25554;44.954;10.068;2022-09-09T00:34:16;19.00;99.90
39881;DHT22;25554;44.954;10.068;2022-09-09T00:36:45;19.00;99.90
39881;DHT22;25554;44.954;10.068;2022-09-09T00:39:31;19.00;99.90
39881;DHT22;25554;44.954;10.068;2022-09-09T00:42:40;19.00;99.90
39881;DHT22;25554;44.954;10.068;2022-09-09T00:47:53;19.00;99.90
39881;DHT22;25554;44.954;10.068;2022-09-09T00:56:13;19.10;99.90
39881;DHT22;25554;44.954;10.068;2022-09-09T00:58:54;19.20;99.90
39881;DHT22;25554;44.954;10.068;2022-09-09T01:01:25;19.20;99.90
39881;DHT22;25554;44.954;10.068;2022-09-09T01:03:54;19.20;99.90
39881;DHT22;25554;44.954;10.068;2022-09-09T01:06:22;19.20;99.90
39881;DHT22;25554;44.954;10.068;2022-09-09T01:11:24;19.00;99.90
39881;DHT22;25554;44.954;10.068;2022-09-09T01:17:11;19.00;99.90
39881;DHT22;25554;44.954;10.068;2022-09-09T01:25:09;18.80;99.90
39881;DHT22;25554;44.954;10.068;2022-09-09T01:28:04;18.80;99.90
39881;DHT22;25554;44.954;10.068;2022-09-09T01:30:38;18.70;99.90
39881;DHT22;25554;44.954;10.068;2022-09-09T01:33:13;18.70;99.90
39881;DHT22;25554;44.954;10.068;2022-09-09T01:35:52;18.70;99.90
39881;DHT22;25554;44.954;10.068;2022-09-09T01:38:28;18.80;99.90
39881;DHT22;25554;44.954;10.068;2022-09-09T01:40:56;18.80;99.90
39881;DHT22;25554;44.954;10.068;2022-09-09T01:43:29;18.80;99.90
39881;DHT22;25554;44.954;10.068;2022-09-09T01:45:59;18.80;99.90
39881;DHT22;25554;44.954;10.068;2022-09-09T01:48:27;18.80;99.90
39881;DHT22;25554;44.954;10.068;2022-09-09T01:51:03;18.80;99.90
39881;DHT22;25554;44.954;10.068;2022-09-09T01:53:32;18.80;99.90
39881;DHT22;25554;44.954;10.068;2022-09-09T01:56:32;18.80;99.90
39881;DHT22;25554;44.954;10.068;2022-09-09T02:02:19;18.80;99.90
39881;DHT22;25554;44.954;10.068;2022-09-09T02:05:37;18.80;99.90
39881;DHT22;25554;44.954;10.068;2022-09-09T02:08:20;18.70;99.90
39881;DHT22;25554;44.954;10.068;2022-09-09T02:11:15;18.60;99.90
39881;DHT22;25554;44.954;10.068;2022-09-09T02:13:51;18.60;99.90
39881;DHT22;25554;44.954;10.068;2022-09-09T02:16:27;18.60;99.90
39881;DHT22;25554;44.954;10.068;2022-09-09T02:19:11;18.60;99.90
39881;DHT22;25554;44.954;10.068;2022-09-09T02:21:55;18.60;99.90
39881;DHT22;25554;44.954;10.068;2022-09-09T02:24:22;18.50;99.90
39881;DHT22;25554;44.954;10.068;2022-09-09T02:26:59;18.40;99.90
39881;DHT22;25554;44.954;10.068;2022-09-09T02:29:40;18.40;99.90
39881;DHT22;25554;44.954;10.068;2022-09-09T02:32:23;18.30;99.90
39881;DHT22;25554;44.954;10.068;2022-09-09T02:34:57;18.30;99.90
39881;DHT22;25554;44.954;10.068;2022-09-09T02:37:33;18.20;99.90
39881;DHT22;25554;44.954;10.068;2022-09-09T02:40:06;18.10;99.90
39881;DHT22;25554;44.954;10.068;2022-09-09T02:42:42;18.10;99.90
39881;DHT22;25554;44.954;10.068;2022-09-09T02:45:12;18.10;99.90
39881;DHT22;25554;44.954;10.068;2022-09-09T02:47:47;18.20;99.90
39881;DHT22;25554;44.954;10.068;2022-09-09T02:50:34;18.20;99.90
39881;DHT22;25554;44.954;10.068;2022-09-09T02:53:16;18.20;99.90
39881;DHT22;25554;44.954;10.068;2022-09-09T02:56:09;18.20;99.90
39881;DHT22;25554;44.954;10.068;2022-09-09T02:58:42;18.10;99.90
39881;DHT22;25554;44.954;10.068;2022-09-09T03:01:11;18.10;99.90
39881;DHT22;25554;44.954;10.068;2022-09-09T03:03:38;18.10;99.90
39881;DHT22;25554;44.954;10.068;2022-09-09T03:06:11;18.20;99.90
39881;DHT22;25554;44.954;10.068;2022-09-09T03:08:39;18.20;99.90
39881;DHT22;25554;44.954;10.068;2022-09-09T03:11:05;18.30;99.90
39881;DHT22;25554;44.954;10.068;2022-09-09T03:13:35;18.30;99.90
39881;DHT22;25554;44.954;10.068;2022-09-09T03:16:01;18.40;99.90
39881;DHT22;25554;44.954;10.068;2022-09-09T03:18:34;18.40;99.90
39881;DHT22;25554;44.954;10.068;2022-09-09T03:21:00;18.40;99.90
39881;DHT22;25554;44.954;10.068;2022-09-09T03:23:28;18.40;99.90
39881;DHT22;25554;44.954;10.068;2022-09-09T03:25:56;18.40;99.90
39881;DHT22;25554;44.954;10.068;2022-09-09T03:28:34;18.40;99.90
39881;DHT22;25554;44.954;10.068;2022-09-09T03:31:04;18.50;99.90
39881;DHT22;25554;44.954;10.068;2022-09-09T03:33:37;18.50;99.90
39881;DHT22;25554;44.954;10.068;2022-09-09T03:36:05;18.50;99.90
39881;DHT22;25554;44.954;10.068;2022-09-09T03:38:33;18.50;99.90
39881;DHT22;25554;44.954;10.068;2022-09-09T03:41:00;18.50;99.90
39881;DHT22;25554;44.954;10.068;2022-09-09T03:43:29;18.40;99.90
39881;DHT22;25554;44.954;10.068;2022-09-09T03:45:56;18.40;99.90
39881;DHT22;25554;44.954;10.068;2022-09-09T03:48:27;18.40;99.90
39881;DHT22;25554;44.954;10.068;2022-09-09T03:50:55;18.40;99.90
39881;DHT22;25554;44.954;10.068;2022-09-09T03:53:24;18.40;99.90
39881;DHT22;25554;44.954;10.068;2022-09-09T03:55:54;18.50;99.90
39881;DHT22;25554;44.954;10.068;2022-09-09T03:58:23;18.40;99.90
39881;DHT22;25554;44.954;10.068;2022-09-09T04:01:00;18.40;99.90
39881;DHT22;25554;44.954;10.068;2022-09-09T04:03:28;18.30;99.90
39881;DHT22;25554;44.954;10.068;2022-09-09T04:05:57;18.30;99.90
39881;DHT22;25554;44.954;10.068;2022-09-09T04:08:26;18.40;99.90
39881;DHT22;25554;44.954;10.068;2022-09-09T04:10:54;18.40;99.90
39881;DHT22;25554;44.954;10.068;2022-09-09T04:13:25;18.30;99.90
39881;DHT22;25554;44.954;10.068;2022-09-09T04:15:58;18.30;99.90
39881;DHT22;25554;44.954;10.068;2022-09-09T04:18:25;18.20;99.90
39881;DHT22;25554;44.954;10.068;2022-09-09T04:20:52;18.20;99.90
39881;DHT22;25554;44.954;10.068;2022-09-09T04:23:22;18.20;99.90
39881;DHT22;25554;44.954;10.068;2022-09-09T04:25:52;18.20;99.90
39881;DHT22;25554;44.954;10.068;2022-09-09T04:28:20;18.10;99.90
39881;DHT22;25554;44.954;10.068;2022-09-09T04:30:47;18.20;99.90
39881;DHT22;25554;44.954;10.068;2022-09-09T04:33:15;18.20;99.90
39881;DHT22;25554;44.954;10.068;2022-09-09T04:35:50;18.20;99.90
39881;DHT22;25554;44.954;10.068;2022-09-09T04:38:18;18.20;99.90
39881;DHT22;25554;44.954;10.068;2022-09-09T04:40:49;18.20;99.90
39881;DHT22;25554;44.954;10.068;2022-09-09T04:43:18;18.30;99.90
39881;DHT22;25554;44.954;10.068;2022-09-09T04:45:50;18.30;99.90
39881;DHT22;25554;44.954;10.068;2022-09-09T04:48:20;18.30;99.90
39881;DHT22;25554;44.954;10.068;2022-09-09T04:51:15;18.30;99.90
39881;DHT22;25554;44.954;10.068;2022-09-09T04:53:44;18.30;99.90
39881;DHT22;25554;44.954;10.068;2022-09-09T04:56:15;18.30;99.90
39881;DHT22;25554;44.954;10.068;2022-09-09T04:58:50;18.30;99.90
39881;DHT22;25554;44.954;10.068;2022-09-09T05:01:19;18.30;99.90
39881;DHT22;25554;44.954;10.068;2022-09-09T05:03:48;18.30;99.90
39881;DHT22;25554;44.954;10.068;2022-09-09T05:06:20;18.20;99.90
39881;DHT22;25554;44.954;10.068;2022-09-09T05:08:49;18.20;99.90
39881;DHT22;25554;44.954;10.068;2022-09-09T05:11:23;18.20;99.90
39881;DHT22;25554;44.954;10.068;2022-09-09T05:13:53;18.20;99.90
39881;DHT22;25554;44.954;10.068;2022-09-09T05:16:20;18.20;99.90
39881;DHT22;25554;44.954;10.068;2022-09-09T05:18:50;18.20;99.90
39881;DHT22;25554;44.954;10.068;2022-09-09T05:21:20;18.20;99.90
39881;DHT22;25554;44.954;10.068;2022-09-09T05:23:50;18.20;99.90
39881;DHT22;25554;44.954;10.068;2022-09-09T05:26:20;18.30;99.90
39881;DHT22;25554;44.954;10.068;2022-09-09T05:28:49;18.30;99.90
39881;DHT22;25554;44.954;10.068;2022-09-09T05:31:17;18.30;99.90
39881;DHT22;25554;44.954;10.068;2022-09-09T05:33:46;18.30;99.90
39881;DHT22;25554;44.954;10.068;2022-09-09T05:36:17;18.40;99.90
39881;DHT22;25554;44.954;10.068;2022-09-09T05:38:46;18.40;99.90
39881;DHT22;25554;44.954;10.068;2022-09-09T05:41:14;18.40;99.90
39881;DHT22;25554;44.954;10.068;2022-09-09T05:43:44;18.50;99.90
39881;DHT22;25554;44.954;10.068;2022-09-09T05:46:14;18.60;99.90
39881;DHT22;25554;44.954;10.068;2022-09-09T05:48:43;18.60;99.90
39881;DHT22;25554;44.954;10.068;2022-09-09T05:51:12;18.60;99.90
39881;DHT22;25554;44.954;10.068;2022-09-09T05:53:39;18.70;99.90
39881;DHT22;25554;44.954;10.068;2022-09-09T05:56:06;18.80;99.90
39881;DHT22;25554;44.954;10.068;2022-09-09T05:58:38;18.90;99.90
39881;DHT22;25554;44.954;10.068;2022-09-09T06:01:18;18.90;99.90
39881;DHT22;25554;44.954;10.068;2022-09-09T06:03:50;19.00;99.90
39881;DHT22;25554;44.954;10.068;2022-09-09T06:06:25;19.10;99.90
39881;DHT22;25554;44.954;10.068;2022-09-09T06:09:00;19.20;99.90
39881;DHT22;25554;44.954;10.068;2022-09-09T06:11:33;19.30;99.90
39881;DHT22;25554;44.954;10.068;2022-09-09T06:14:03;19.40;99.90
39881;DHT22;25554;44.954;10.068;2022-09-09T06:16:31;19.60;99.90
39881;DHT22;25554;44.954;10.068;2022-09-09T06:18:59;19.70;99.90
39881;DHT22;25554;44.954;10.068;2022-09-09T06:21:30;19.70;99.90
39881;DHT22;25554;44.954;10.068;2022-09-09T06:23:57;19.80;99.90
39881;DHT22;25554;44.954;10.068;2022-09-09T06:26:31;20.00;99.90
39881;DHT22;25554;44.954;10.068;2022-09-09T06:29:00;20.20;99.90
39881;DHT22;25554;44.954;10.068;2022-09-09T06:31:29;20.40;99.90
39881;DHT22;25554;44.954;10.068;2022-09-09T06:33:59;20.50;99.90
39881;DHT22;25554;44.954;10.068;2022-09-09T06:36:28;21.00;99.90
39881;DHT22;25554;44.954;10.068;2022-09-09T06:38:55;21.10;99.90
39881;DHT22;25554;44.954;10.068;2022-09-09T06:41:23;21.30;99.90
39881;DHT22;25554;44.954;10.068;2022-09-09T06:43:52;21.70;99.90
39881;DHT22;25554;44.954;10.068;2022-09-09T06:46:26;22.00;99.90
39881;DHT22;25554;44.954;10.068;2022-09-09T06:48:56;22.20;99.90
39881;DHT22;25554;44.954;10.068;2022-09-09T06:51:28;22.30;99.90
39881;DHT22;25554;44.954;10.068;2022-09-09T06:53:57;22.40;99.90
39881;DHT22;25554;44.954;10.068;2022-09-09T06:56:27;22.40;99.90
39881;DHT22;25554;44.954;10.068;2022-09-09T06:58:58;22.30;99.90
39881;DHT22;25554;44.954;10.068;2022-09-09T07:01:30;22.40;99.90
39881;DHT22;25554;44.954;10.068;2022-09-09T07:04:01;22.60;99.90
39881;DHT22;25554;44.954;10.068;2022-09-09T07:06:30;22.60;99.90
39881;DHT22;25554;44.954;10.068;2022-09-09T07:09:00;22.40;99.90
39881;DHT22;25554;44.954;10.068;2022-09-09T07:11:31;22.40;99.90
39881;DHT22;25554;44.954;10.068;2022-09-09T07:13:59;22.50;99.90
39881;DHT22;25554;44.954;10.068;2022-09-09T07:16:26;22.60;99.90
39881;DHT22;25554;44.954;10.068;2022-09-09T07:18:55;22.70;99.90
39881;DHT22;25554;44.954;10.068;2022-09-09T07:21:29;22.50;99.90
39881;DHT22;25554;44.954;10.068;2022-09-09T07:23:56;22.50;99.90
39881;DHT22;25554;44.954;10.068;2022-09-09T07:26:28;22.50;99.90
39881;DHT22;25554;44.954;10.068;2022-09-09T07:28:55;22.50;99.90
39881;DHT22;25554;44.954;10.068;2022-09-09T07:31:27;22.40;99.90
39881;DHT22;25554;44.954;10.068;2022-09-09T07:33:54;22.60;99.90
39881;DHT22;25554;44.954;10.068;2022-09-09T07:36:23;22.60;99.90
39881;DHT22;25554;44.954;10.068;2022-09-09T07:38:52;22.80;99.90
39881;DHT22;25554;44.954;10.068;2022-09-09T07:41:24;22.90;99.90
39881;DHT22;25554;44.954;10.068;2022-09-09T07:43:52;23.00;99.90
39881;DHT22;25554;44.954;10.068;2022-09-09T07:46:25;23.00;99.90
39881;DHT22;25554;44.954;10.068;2022-09-09T07:48:56;23.10;99.90
39881;DHT22;25554;44.954;10.068;2022-09-09T07:51:29;23.20;99.90
39881;DHT22;25554;44.954;10.068;2022-09-09T07:54:02;23.10;99.90
39881;DHT22;25554;44.954;10.068;2022-09-09T07:56:31;23.20;99.90
39881;DHT22;25554;44.954;10.068;2022-09-09T07:58:59;23.20;99.90
39881;DHT22;25554;44.954;10.068;2022-09-09T08:01:30;23.30;99.90
39881;DHT22;25554;44.954;10.068;2022-09-09T08:04:02;23.30;99.90
39881;DHT22;25554;44.954;10.068;2022-09-09T08:06:32;23.40;99.90
39881;DHT22;25554;44.954;10.068;2022-09-09T08:09:00;23.50;99.90
39881;DHT22;25554;44.954;10.068;2022-09-09T08:11:29;23.30;99.90
39881;DHT22;25554;44.954;10.068;2022-09-09T08:13:56;23.10;99.90
39881;DHT22;25554;44.954;10.068;2022-09-09T08:16:26;22.90;99.90
39881;DHT22;25554;44.954;10.068;2022-09-09T08:18:53;22.70;99.90
39881;DHT22;25554;44.954;10.068;2022-09-09T08:21:30;22.80;99.90
39881;DHT22;25554;44.954;10.068;2022-09-09T08:24:00;22.70;99.90
39881;DHT22;25554;44.954;10.068;2022-09-09T08:26:36;22.60;99.90
39881;DHT22;25554;44.954;10.068;2022-09-09T08:29:06;22.60;99.90
39881;DHT22;25554;44.954;10.068;2022-09-09T08:31:35;22.60;99.90
39881;DHT22;25554;44.954;10.068;2022-09-09T08:34:05;22.50;99.90
39881;DHT22;25554;44.954;10.068;2022-09-09T08:36:42;22.40;99.90
39881;DHT22;25554;44.954;10.068;2022-09-09T08:39:11;22.80;99.90
39881;DHT22;25554;44.954;10.068;2022-09-09T08:42:00;23.20;99.90
39881;DHT22;25554;44.954;10.068;2022-09-09T08:47:51;23.20;99.90
39881;DHT22;25554;44.954;10.068;2022-09-09T08:50:34;23.30;99.90
39881;DHT22;25554;44.954;10.068;2022-09-09T08:53:22;23.60;99.90
39881;DHT22;25554;44.954;10.068;2022-09-09T08:55:53;24.20;99.90
39881;DHT22;25554;44.954;10.068;2022-09-09T08:58:29;24.30;99.90
39881;DHT22;25554;44.954;10.068;2022-09-09T09:11:24;23.50;99.90
39881;DHT22;25554;44.954;10.068;2022-09-09T09:13:59;23.60;99.90
39881;DHT22;25554;44.954;10.068;2022-09-09T09:16:34;23.50;99.90
39881;DHT22;25554;44.954;10.068;2022-09-09T09:19:04;23.50;99.90
39881;DHT22;25554;44.954;10.068;2022-09-09T09:27:33;23.70;99.90
39881;DHT22;25554;44.954;10.068;2022-09-09T09:30:15;23.90;99.90
39881;DHT22;25554;44.954;10.068;2022-09-09T09:32:53;24.10;99.90
39881;DHT22;25554;44.954;10.068;2022-09-09T09:35:20;24.20;99.90
39881;DHT22;25554;44.954;10.068;2022-09-09T09:37:46;24.40;99.90
39881;DHT22;25554;44.954;10.068;2022-09-09T09:40:14;24.50;99.90
39881;DHT22;25554;44.954;10.068;2022-09-09T09:43:00;24.50;99.90
39881;DHT22;25554;44.954;10.068;2022-09-09T09:45:43;24.40;99.90
39881;DHT22;25554;44.954;10.068;2022-09-09T09:48:12;24.40;99.90
39881;DHT22;25554;44.954;10.068;2022-09-09T09:53:33;24.20;99.90
39881;DHT22;25554;44.954;10.068;2022-09-09T09:56:03;24.10;99.90
39881;DHT22;25554;44.954;10.068;2022-09-09T09:58:33;24.00;99.90
39881;DHT22;25554;44.954;10.068;2022-09-09T10:01:18;23.90;99.90
39881;DHT22;25554;44.954;10.068;2022-09-09T10:03:51;23.80;99.90
39881;DHT22;25554;44.954;10.068;2022-09-09T10:06:38;24.00;99.90
39881;DHT22;25554;44.954;10.068;2022-09-09T10:17:44;24.30;99.90
39881;DHT22;25554;44.954;10.068;2022-09-09T10:26:24;24.50;99.90
39881;DHT22;25554;44.954;10.068;2022-09-09T10:35:12;24.60;99.90
39881;DHT22;25554;44.954;10.068;2022-09-09T10:52:11;25.00;99.90
39881;DHT22;25554;44.954;10.068;2022-09-09T11:00:03;25.00;99.90
39881;DHT22;25554;44.954;10.068;2022-09-09T11:02:32;25.00;99.90
39881;DHT22;25554;44.954;10.068;2022-09-09T11:05:16;25.10;99.90
39881;DHT22;25554;44.954;10.068;2022-09-09T11:08:03;25.30;99.90
39881;DHT22;25554;44.954;10.068;2022-09-09T11:10:42;25.40;99.90
39881;DHT22;25554;44.954;10.068;2022-09-09T11:13:58;25.40;99.90
39881;DHT22;25554;44.954;10.068;2022-09-09T11:16:28;25.50;99.90
39881;DHT22;25554;44.954;10.068;2022-09-09T11:21:45;25.30;99.90
39881;DHT22;25554;44.954;10.068;2022-09-09T11:24:32;25.40;99.90
39881;DHT22;25554;44.954;10.068;2022-09-09T11:37:39;25.70;99.90
39881;DHT22;25554;44.954;10.068;2022-09-09T11:40:18;25.80;99.90
39881;DHT22;25554;44.954;10.068;2022-09-09T11:42:46;25.70;99.90
39881;DHT22;25554;44.954;10.068;2022-09-09T11:45:21;25.80;99.90
39881;DHT22;25554;44.954;10.068;2022-09-09T11:47:54;26.00;99.90
39881;DHT22;25554;44.954;10.068;2022-09-09T11:52:48;26.10;99.90
39881;DHT22;25554;44.954;10.068;2022-09-09T11:55:32;26.30;99.90
39881;DHT22;25554;44.954;10.068;2022-09-09T11:58:01;26.40;99.90
39881;DHT22;25554;44.954;10.068;2022-09-09T12:00:39;26.40;99.90
39881;DHT22;25554;44.954;10.068;2022-09-09T12:03:48;26.50;99.90
39881;DHT22;25554;44.954;10.068;2022-09-09T12:06:20;26.40;99.90
39881;DHT22;25554;44.954;10.068;2022-09-09T12:08:55;26.50;99.90
39881;DHT22;25554;44.954;10.068;2022-09-09T12:11:28;26.50;99.90
39881;DHT22;25554;44.954;10.068;2022-09-09T12:13:56;26.60;99.90
39881;DHT22;25554;44.954;10.068;2022-09-09T12:16:30;26.60;99.90
39881;DHT22;25554;44.954;10.068;2022-09-09T12:24:29;26.80;99.90
39881;DHT22;25554;44.954;10.068;2022-09-09T12:27:18;26.90;99.90
39881;DHT22;25554;44.954;10.068;2022-09-09T12:30:03;27.00;99.90
39881;DHT22;25554;44.954;10.068;2022-09-09T12:32:30;27.10;99.90
39881;DHT22;25554;44.954;10.068;2022-09-09T12:35:03;27.00;99.90
39881;DHT22;25554;44.954;10.068;2022-09-09T12:37:36;27.10;99.90
39881;DHT22;25554;44.954;10.068;2022-09-09T12:40:05;27.20;99.90
39881;DHT22;25554;44.954;10.068;2022-09-09T12:42:32;27.30;99.90
39881;DHT22;25554;44.954;10.068;2022-09-09T12:45:03;27.30;99.90
39881;DHT22;25554;44.954;10.068;2022-09-09T12:47:51;27.40;99.90
39881;DHT22;25554;44.954;10.068;2022-09-09T12:50:25;27.60;99.90
39881;DHT22;25554;44.954;10.068;2022-09-09T12:52:55;27.50;99.90
39881;DHT22;25554;44.954;10.068;2022-09-09T12:55:28;27.50;99.90
39881;DHT22;25554;44.954;10.068;2022-09-09T12:57:57;27.50;99.90
39881;DHT22;25554;44.954;10.068;2022-09-09T13:00:25;27.60;99.90
39881;DHT22;25554;44.954;10.068;2022-09-09T13:02:55;27.80;99.90
39881;DHT22;25554;44.954;10.068;2022-09-09T13:07:50;27.90;99.90
39881;DHT22;25554;44.954;10.068;2022-09-09T13:10:26;28.00;99.90
39881;DHT22;25554;44.954;10.068;2022-09-09T13:12:54;28.10;99.90
39881;DHT22;25554;44.954;10.068;2022-09-09T13:15:23;28.10;99.90
39881;DHT22;25554;44.954;10.068;2022-09-09T13:17:52;28.10;99.90
39881;DHT22;25554;44.954;10.068;2022-09-09T13:20:20;28.10;99.90
39881;DHT22;25554;44.954;10.068;2022-09-09T13:22:48;28.10;99.90
39881;DHT22;25554;44.954;10.068;2022-09-09T13:30:36;28.40;99.90
39881;DHT22;25554;44.954;10.068;2022-09-09T13:33:20;28.40;99.90
39881;DHT22;25554;44.954;10.068;2022-09-09T13:38:17;28.40;99.90
39881;DHT22;25554;44.954;10.068;2022-09-09T13:41:03;28.50;99.90
39881;DHT22;25554;44.954;10.068;2022-09-09T13:43:38;28.60;99.90
39881;DHT22;25554;44.954;10.068;2022-09-09T13:46:43;28.60;99.90
39881;DHT22;25554;44.954;10.068;2022-09-09T13:51:41;28.60;99.90
39881;DHT22;25554;44.954;10.068;2022-09-09T13:54:13;28.60;99.90
39881;DHT22;25554;44.954;10.068;2022-09-09T13:56:41;28.70;99.90
39881;DHT22;25554;44.954;10.068;2022-09-09T13:59:17;28.60;99.90
39881;DHT22;25554;44.954;10.068;2022-09-09T14:01:46;28.70;99.90
39881;DHT22;25554;44.954;10.068;2022-09-09T14:04:12;28.80;99.90
39881;DHT22;25554;44.954;10.068;2022-09-09T14:06:39;28.80;99.90
39881;DHT22;25554;44.954;10.068;2022-09-09T14:09:09;29.00;99.90
39881;DHT22;25554;44.954;10.068;2022-09-09T14:11:36;29.00;99.90
39881;DHT22;25554;44.954;10.068;2022-09-09T14:14:03;29.00;99.90
39881;DHT22;25554;44.954;10.068;2022-09-09T14:16:29;28.80;99.90
39881;DHT22;25554;44.954;10.068;2022-09-09T14:18:56;28.80;99.90
39881;DHT22;25554;44.954;10.068;2022-09-09T14:21:23;29.00;99.90
39881;DHT22;25554;44.954;10.068;2022-09-09T14:23:50;29.00;99.90
39881;DHT22;25554;44.954;10.068;2022-09-09T14:26:16;28.90;99.90
39881;DHT22;25554;44.954;10.068;2022-09-09T14:28:44;28.80;99.90
39881;DHT22;25554;44.954;10.068;2022-09-09T14:31:11;28.80;99.90
39881;DHT22;25554;44.954;10.068;2022-09-09T14:33:39;28.80;99.90
39881;DHT22;25554;44.954;10.068;2022-09-09T14:36:06;28.90;99.90
39881;DHT22;25554;44.954;10.068;2022-09-09T14:38:35;29.00;99.90
39881;DHT22;25554;44.954;10.068;2022-09-09T14:41:06;29.10;99.90
39881;DHT22;25554;44.954;10.068;2022-09-09T14:43:32;29.00;99.90
39881;DHT22;25554;44.954;10.068;2022-09-09T14:46:07;28.80;99.90
39881;DHT22;25554;44.954;10.068;2022-09-09T14:48:34;28.70;99.90
39881;DHT22;25554;44.954;10.068;2022-09-09T14:51:14;28.70;99.90
39881;DHT22;25554;44.954;10.068;2022-09-09T14:53:42;28.80;99.90
39881;DHT22;25554;44.954;10.068;2022-09-09T14:58:37;29.00;99.90
39881;DHT22;25554;44.954;10.068;2022-09-09T15:01:05;29.00;99.90
39881;DHT22;25554;44.954;10.068;2022-09-09T15:03:32;29.10;99.90
39881;DHT22;25554;44.954;10.068;2022-09-09T15:06:07;29.10;99.90
39881;DHT22;25554;44.954;10.068;2022-09-09T15:08:39;29.20;99.90
39881;DHT22;25554;44.954;10.068;2022-09-09T15:11:07;29.20;99.90
39881;DHT22;25554;44.954;10.068;2022-09-09T15:13:34;29.20;99.90
39881;DHT22;25554;44.954;10.068;2022-09-09T15:16:04;29.20;99.90
39881;DHT22;25554;44.954;10.068;2022-09-09T15:18:32;29.30;99.90
39881;DHT22;25554;44.954;10.068;2022-09-09T15:21:00;29.20;99.90
39881;DHT22;25554;44.954;10.068;2022-09-09T15:23:31;29.20;99.90
39881;DHT22;25554;44.954;10.068;2022-09-09T15:25:58;29.00;99.90
39881;DHT22;25554;44.954;10.068;2022-09-09T15:28:24;29.20;99.90
39881;DHT22;25554;44.954;10.068;2022-09-09T15:30:52;29.20;99.90
39881;DHT22;25554;44.954;10.068;2022-09-09T15:33:20;29.30;99.90
39881;DHT22;25554;44.954;10.068;2022-09-09T15:35:47;29.30;99.90
39881;DHT22;25554;44.954;10.068;2022-09-09T15:38:13;29.30;99.90
39881;DHT22;25554;44.954;10.068;2022-09-09T15:40:41;29.30;99.90
39881;DHT22;25554;44.954;10.068;2022-09-09T15:43:08;29.30;99.90
39881;DHT22;25554;44.954;10.068;2022-09-09T15:45:36;29.30;99.90
39881;DHT22;25554;44.954;10.068;2022-09-09T15:48:03;29.30;99.90
39881;DHT22;25554;44.954;10.068;2022-09-09T15:50:30;29.20;99.90
39881;DHT22;25554;44.954;10.068;2022-09-09T15:52:59;29.20;99.90
39881;DHT22;25554;44.954;10.068;2022-09-09T15:55:25;29.20;99.90
39881;DHT22;25554;44.954;10.068;2022-09-09T15:57:52;29.10;99.90
39881;DHT22;25554;44.954;10.068;2022-09-09T16:00:19;29.10;99.90
39881;DHT22;25554;44.954;10.068;2022-09-09T16:02:49;29.10;99.90
39881;DHT22;25554;44.954;10.068;2022-09-09T16:05:16;29.00;99.90
39881;DHT22;25554;44.954;10.068;2022-09-09T16:07:42;28.90;99.90
39881;DHT22;25554;44.954;10.068;2022-09-09T16:10:09;28.90;99.90
39881;DHT22;25554;44.954;10.068;2022-09-09T16:12:37;28.80;99.90
39881;DHT22;25554;44.954;10.068;2022-09-09T16:15:05;28.80;99.90
39881;DHT22;25554;44.954;10.068;2022-09-09T16:17:32;28.70;99.90
39881;DHT22;25554;44.954;10.068;2022-09-09T16:20:04;28.70;99.90
39881;DHT22;25554;44.954;10.068;2022-09-09T16:22:33;28.60;99.90
39881;DHT22;25554;44.954;10.068;2022-09-09T16:24:59;28.60;99.90
39881;DHT22;25554;44.954;10.068;2022-09-09T16:27:25;28.50;99.90
39881;DHT22;25554;44.954;10.068;2022-09-09T16:29:52;28.40;99.90
39881;DHT22;25554;44.954;10.068;2022-09-09T16:32:22;28.30;99.90
39881;DHT22;25554;44.954;10.068;2022-09-09T16:34:48;28.20;99.90
39881;DHT22;25554;44.954;10.068;2022-09-09T16:37:15;28.10;99.90
39881;DHT22;25554;44.954;10.068;2022-09-09T16:39:41;28.00;99.90
39881;DHT22;25554;44.954;10.068;2022-09-09T16:42:07;28.00;99.90
39881;DHT22;25554;44.954;10.068;2022-09-09T16:44:35;27.90;99.90
39881;DHT22;25554;44.954;10.068;2022-09-09T16:47:01;27.70;99.90
39881;DHT22;25554;44.954;10.068;2022-09-09T16:49:27;27.70;99.90
39881;DHT22;25554;44.954;10.068;2022-09-09T16:51:59;27.60;99.90
39881;DHT22;25554;44.954;10.068;2022-09-09T16:54:26;27.50;99.90
39881;DHT22;25554;44.954;10.068;2022-09-09T16:56:53;27.40;99.90
39881;DHT22;25554;44.954;10.068;2022-09-09T16:59:21;27.30;99.90
39881;DHT22;25554;44.954;10.068;2022-09-09T17:01:49;27.20;99.90
39881;DHT22;25554;44.954;10.068;2022-09-09T17:04:19;27.10;99.90
39881;DHT22;25554;44.954;10.068;2022-09-09T17:06:52;27.10;99.90
39881;DHT22;25554;44.954;10.068;2022-09-09T17:09:20;27.00;99.90
39881;DHT22;25554;44.954;10.068;2022-09-09T17:11:47;26.90;99.90
39881;DHT22;25554;44.954;10.068;2022-09-09T17:14:18;26.90;99.90
39881;DHT22;25554;44.954;10.068;2022-09-09T17:16:44;26.80;99.90
39881;DHT22;25554;44.954;10.068;2022-09-09T17:19:12;26.60;99.90
39881;DHT22;25554;44.954;10.068;2022-09-09T17:21:39;26.50;99.90
39881;DHT22;25554;44.954;10.068;2022-09-09T17:24:06;26.40;99.90
39881;DHT22;25554;44.954;10.068;2022-09-09T17:26:33;26.30;99.90
39881;DHT22;25554;44.954;10.068;2022-09-09T17:29:02;26.20;99.90
39881;DHT22;25554;44.954;10.068;2022-09-09T17:31:29;26.10;99.90
39881;DHT22;25554;44.954;10.068;2022-09-09T17:33:56;26.00;99.90
39881;DHT22;25554;44.954;10.068;2022-09-09T17:36:26;26.00;99.90
39881;DHT22;25554;44.954;10.068;2022-09-09T17:38:53;25.90;99.90
39881;DHT22;25554;44.954;10.068;2022-09-09T17:41:31;25.80;99.90
39881;DHT22;25554;44.954;10.068;2022-09-09T17:43:58;25.70;99.90
39881;DHT22;25554;44.954;10.068;2022-09-09T17:46:36;25.60;99.90
39881;DHT22;25554;44.954;10.068;2022-09-09T17:49:05;25.60;99.90
39881;DHT22;25554;44.954;10.068;2022-09-09T17:51:34;25.50;99.90
39881;DHT22;25554;44.954;10.068;2022-09-09T17:54:03;25.40;99.90
39881;DHT22;25554;44.954;10.068;2022-09-09T17:56:31;25.40;99.90
39881;DHT22;25554;44.954;10.068;2022-09-09T17:59:00;25.30;99.90
39881;DHT22;25554;44.954;10.068;2022-09-09T18:01:30;25.20;99.90